Hlavní strana
METAR-TAF:

METAR-TAF

Letiště :

Bologna, Itálie

Letiště Bologna

zeměpisná šířka: 44-32N, zeměpisná délka: 011-18E, výška: 36 m

Aktuální stav počasí

Zpráva byla vytvořena před 44 minutami, v 04:20 UTC
Západní vítr 3 kt
Teplota 4°C
Vlhkost vzduchu 100%
Tlak 1018 hPa
Viditelnost: 1900 m
Oblačno až skoro zataženo ve výšce 600 ft
Oblačno až skoro zataženo ve výšce 2500 ft
slabé mrholení, kouřmo

METAR: LIPE 180420Z 26003KT 1900 -DZ BR BKN006 BKN025 04/04 Q1018

Čas: 06:04 (05:04 UTC)

Předpověď počasí

Zpráva byla vytvořena před 6 hodinami a 4 minutami, v 23:00 UTC
Předpověď platná od 18 v 00 UTC do 18 v 24 UTC
vítr z různých směrů 4 kt
Viditelnost: 6000 m
Oblačno až skoro zataženo ve výšce 3000 ft
Dočasný
od 18 v 00 UTC do 18 v 21 UTC
Viditelnost: 2000 m
déšť
Změna
od 18 v 04 UTC do 18 v 06 UTC
Východoseverovýchodní vítr 10 kt

TAF: LIPE 172300Z 1800/1824 VRB04KT 6000 BKN030 TEMPO 1800/1821 2000 RA BECMG 1804/1806 06010KT

Stav a předpovědi počasí z více než 4 000 letišť (zprávy METAR a TAF).

Červené a žluté tečky na mapě představují dostupné meteorologické stanice.

Když kurzor umístíte na tečku, zobrazí se název stanice.

Pak kliknutím zobrazíte stav a předpověď počasí.

Chcete-li změnit mapu, kliknutím na zelené tlačítko se znaménkem +mapu přiblížíte, kliknutím na zelené tlačítko se znaménkem – mapu oddálíte a kliknutím na zelené šipky přejdete na sousední mapy.


METAR-TAF: